sensor_id;sensor_type;location;lat;lon;timestamp;pressure;altitude;pressure_sealevel;temperature;humidity
28588;BME280;15787;49.662;10.162;2023-04-05T00:00:52;99835.88;;;0.24;80.80
28588;BME280;15787;49.662;10.162;2023-04-05T00:03:25;99833.00;;;0.21;81.18
28588;BME280;15787;49.662;10.162;2023-04-05T00:05:59;99826.72;;;0.32;81.27
28588;BME280;15787;49.662;10.162;2023-04-05T00:08:33;99824.66;;;0.29;81.16
28588;BME280;15787;49.662;10.162;2023-04-05T00:11:06;99825.34;;;0.26;81.12
28588;BME280;15787;49.662;10.162;2023-04-05T00:13:39;99830.38;;;0.48;81.31
28588;BME280;15787;49.662;10.162;2023-04-05T00:16:14;99823.63;;;0.46;81.12
28588;BME280;15787;49.662;10.162;2023-04-05T00:18:47;99813.88;;;0.48;81.02
28588;BME280;15787;49.662;10.162;2023-04-05T00:21:23;99817.22;;;0.30;81.29
28588;BME280;15787;49.662;10.162;2023-04-05T00:23:56;99811.50;;;0.47;81.93
28588;BME280;15787;49.662;10.162;2023-04-05T00:26:29;99805.22;;;0.34;81.25
28588;BME280;15787;49.662;10.162;2023-04-05T00:29:02;99803.81;;;0.28;80.79
28588;BME280;15787;49.662;10.162;2023-04-05T00:31:36;99806.81;;;0.35;80.66
28588;BME280;15787;49.662;10.162;2023-04-05T00:34:09;99805.31;;;0.14;80.91
28588;BME280;15787;49.662;10.162;2023-04-05T00:36:43;99803.94;;;0.32;80.93
28588;BME280;15787;49.662;10.162;2023-04-05T00:39:16;99800.88;;;0.21;80.22
28588;BME280;15787;49.662;10.162;2023-04-05T00:41:49;99798.72;;;-0.67;82.39
28588;BME280;15787;49.662;10.162;2023-04-05T00:44:22;99798.75;;;-0.87;83.70
28588;BME280;15787;49.662;10.162;2023-04-05T00:46:56;99794.59;;;-0.60;85.02
28588;BME280;15787;49.662;10.162;2023-04-05T00:49:31;99786.44;;;-0.12;84.31
28588;BME280;15787;49.662;10.162;2023-04-05T00:52:04;99782.00;;;-0.17;84.00
28588;BME280;15787;49.662;10.162;2023-04-05T00:54:37;99774.88;;;-0.42;82.78
28588;BME280;15787;49.662;10.162;2023-04-05T00:57:13;99783.34;;;-0.23;82.71
28588;BME280;15787;49.662;10.162;2023-04-05T00:59:47;99784.00;;;-0.50;82.54
28588;BME280;15787;49.662;10.162;2023-04-05T01:02:27;99773.69;;;-0.53;83.32
28588;BME280;15787;49.662;10.162;2023-04-05T01:05:07;99775.78;;;-0.95;84.54
28588;BME280;15787;49.662;10.162;2023-04-05T01:07:47;99776.94;;;-0.39;83.72
28588;BME280;15787;49.662;10.162;2023-04-05T01:10:27;99775.31;;;-0.52;83.13
28588;BME280;15787;49.662;10.162;2023-04-05T01:13:02;99767.50;;;-0.74;82.77
28588;BME280;15787;49.662;10.162;2023-04-05T01:15:35;99772.44;;;-1.00;83.78
28588;BME280;15787;49.662;10.162;2023-04-05T01:18:10;99771.38;;;-0.63;83.80
28588;BME280;15787;49.662;10.162;2023-04-05T01:20:48;99774.81;;;-0.66;83.26
28588;BME280;15787;49.662;10.162;2023-04-05T01:23:37;99769.28;;;-0.78;83.01
28588;BME280;15787;49.662;10.162;2023-04-05T01:26:32;99761.09;;;-0.66;83.38
28588;BME280;15787;49.662;10.162;2023-04-05T01:29:26;99765.63;;;-0.82;83.45
28588;BME280;15787;49.662;10.162;2023-04-05T01:32:08;99758.47;;;-0.75;84.27
28588;BME280;15787;49.662;10.162;2023-04-05T01:34:48;99754.97;;;-0.51;83.30
28588;BME280;15787;49.662;10.162;2023-04-05T01:37:25;99759.94;;;-0.77;84.03
28588;BME280;15787;49.662;10.162;2023-04-05T01:39:59;99756.31;;;-0.69;83.79
28588;BME280;15787;49.662;10.162;2023-04-05T01:42:32;99750.69;;;-0.73;83.35
28588;BME280;15787;49.662;10.162;2023-04-05T01:45:08;99754.94;;;-0.63;82.85
28588;BME280;15787;49.662;10.162;2023-04-05T01:47:41;99750.09;;;-0.78;82.96
28588;BME280;15787;49.662;10.162;2023-04-05T01:50:14;99741.78;;;-0.82;83.26
28588;BME280;15787;49.662;10.162;2023-04-05T01:52:47;99744.50;;;-0.82;83.54
28588;BME280;15787;49.662;10.162;2023-04-05T01:55:20;99743.06;;;-0.67;83.33
28588;BME280;15787;49.662;10.162;2023-04-05T01:57:54;99737.03;;;-0.93;83.01
28588;BME280;15787;49.662;10.162;2023-04-05T02:00:28;99742.75;;;-0.86;82.77
28588;BME280;15787;49.662;10.162;2023-04-05T02:03:01;99732.81;;;-0.91;82.24
28588;BME280;15787;49.662;10.162;2023-04-05T02:05:35;99746.03;;;-1.05;82.76
28588;BME280;15787;49.662;10.162;2023-04-05T02:08:08;99736.44;;;-0.99;82.36
28588;BME280;15787;49.662;10.162;2023-04-05T02:10:41;99740.59;;;-0.93;82.82
28588;BME280;15787;49.662;10.162;2023-04-05T02:13:14;99735.97;;;-1.01;83.01
28588;BME280;15787;49.662;10.162;2023-04-05T02:15:49;99732.84;;;-1.11;83.50
28588;BME280;15787;49.662;10.162;2023-04-05T02:18:22;99728.22;;;-1.52;83.86
28588;BME280;15787;49.662;10.162;2023-04-05T02:21:01;99730.19;;;-1.73;85.04
28588;BME280;15787;49.662;10.162;2023-04-05T02:23:35;99734.50;;;-1.31;85.00
28588;BME280;15787;49.662;10.162;2023-04-05T02:26:09;99733.03;;;-1.49;84.81
28588;BME280;15787;49.662;10.162;2023-04-05T02:28:41;99727.38;;;-1.65;85.36
28588;BME280;15787;49.662;10.162;2023-04-05T02:31:16;99731.78;;;-1.72;85.64
28588;BME280;15787;49.662;10.162;2023-04-05T02:33:50;99729.84;;;-1.31;84.97
28588;BME280;15787;49.662;10.162;2023-04-05T02:36:23;99735.16;;;-1.34;84.74
28588;BME280;15787;49.662;10.162;2023-04-05T02:38:59;99732.81;;;-1.23;83.95
28588;BME280;15787;49.662;10.162;2023-04-05T02:41:34;99730.50;;;-1.34;83.94
28588;BME280;15787;49.662;10.162;2023-04-05T02:44:07;99727.03;;;-1.43;84.35
28588;BME280;15787;49.662;10.162;2023-04-05T02:46:41;99726.06;;;-1.26;83.69
28588;BME280;15787;49.662;10.162;2023-04-05T02:49:15;99729.50;;;-1.50;83.82
28588;BME280;15787;49.662;10.162;2023-04-05T02:51:48;99727.03;;;-1.43;84.39
28588;BME280;15787;49.662;10.162;2023-04-05T02:54:22;99733.44;;;-1.39;83.94
28588;BME280;15787;49.662;10.162;2023-04-05T02:57:01;99727.63;;;-1.37;83.77
28588;BME280;15787;49.662;10.162;2023-04-05T02:59:43;99724.75;;;-1.20;84.08
28588;BME280;15787;49.662;10.162;2023-04-05T03:02:18;99725.03;;;-1.75;83.84
28588;BME280;15787;49.662;10.162;2023-04-05T03:04:51;99733.66;;;-1.64;84.39
28588;BME280;15787;49.662;10.162;2023-04-05T03:07:26;99730.44;;;-1.46;83.98
28588;BME280;15787;49.662;10.162;2023-04-05T03:10:00;99729.44;;;-1.41;83.96
28588;BME280;15787;49.662;10.162;2023-04-05T03:12:33;99727.44;;;-1.53;83.90
28588;BME280;15787;49.662;10.162;2023-04-05T03:15:07;99729.38;;;-1.53;82.94
28588;BME280;15787;49.662;10.162;2023-04-05T03:17:45;99724.63;;;-1.44;82.82
28588;BME280;15787;49.662;10.162;2023-04-05T03:20:19;99723.16;;;-1.83;82.77
28588;BME280;15787;49.662;10.162;2023-04-05T03:22:52;99730.03;;;-1.77;82.79
28588;BME280;15787;49.662;10.162;2023-04-05T03:25:30;99730.03;;;-1.77;82.08
28588;BME280;15787;49.662;10.162;2023-04-05T03:28:04;99729.81;;;-1.93;82.08
28588;BME280;15787;49.662;10.162;2023-04-05T03:30:41;99738.84;;;-1.92;81.89
28588;BME280;15787;49.662;10.162;2023-04-05T03:33:22;99725.81;;;-1.95;81.71
28588;BME280;15787;49.662;10.162;2023-04-05T03:35:56;99728.84;;;-2.17;82.09
28588;BME280;15787;49.662;10.162;2023-04-05T03:38:30;99727.19;;;-2.10;81.65
28588;BME280;15787;49.662;10.162;2023-04-05T03:41:14;99731.84;;;-2.10;81.12
28588;BME280;15787;49.662;10.162;2023-04-05T03:43:47;99732.00;;;-2.36;81.44
28588;BME280;15787;49.662;10.162;2023-04-05T03:46:25;99737.00;;;-2.38;82.21
28588;BME280;15787;49.662;10.162;2023-04-05T03:49:01;99728.88;;;-2.26;81.68
28588;BME280;15787;49.662;10.162;2023-04-05T03:51:34;99728.25;;;-2.31;82.38
28588;BME280;15787;49.662;10.162;2023-04-05T03:54:07;99741.69;;;-3.02;84.88
28588;BME280;15787;49.662;10.162;2023-04-05T03:56:41;99727.13;;;-2.60;85.25
28588;BME280;15787;49.662;10.162;2023-04-05T03:59:19;99731.81;;;-2.31;85.15
28588;BME280;15787;49.662;10.162;2023-04-05T04:01:52;99728.22;;;-2.23;84.63
28588;BME280;15787;49.662;10.162;2023-04-05T04:04:29;99723.16;;;-2.41;84.67
28588;BME280;15787;49.662;10.162;2023-04-05T04:07:02;99732.09;;;-3.25;86.17
28588;BME280;15787;49.662;10.162;2023-04-05T04:09:35;99717.84;;;-2.67;86.43
28588;BME280;15787;49.662;10.162;2023-04-05T04:12:11;99717.19;;;-2.73;86.88
28588;BME280;15787;49.662;10.162;2023-04-05T04:14:54;99719.78;;;-2.76;86.47
28588;BME280;15787;49.662;10.162;2023-04-05T04:17:44;99711.47;;;-2.50;85.00
28588;BME280;15787;49.662;10.162;2023-04-05T04:20:41;99719.50;;;-2.45;85.29
28588;BME280;15787;49.662;10.162;2023-04-05T04:23:31;99719.53;;;-3.00;86.38
28588;BME280;15787;49.662;10.162;2023-04-05T04:26:19;99722.75;;;-2.52;85.94
28588;BME280;15787;49.662;10.162;2023-04-05T04:29:11;99723.22;;;-2.50;84.72
28588;BME280;15787;49.662;10.162;2023-04-05T04:32:18;99731.25;;;-2.45;83.97
28588;BME280;15787;49.662;10.162;2023-04-05T04:35:27;99721.50;;;-2.34;83.76
28588;BME280;15787;49.662;10.162;2023-04-05T04:38:08;99732.16;;;-2.79;83.56
28588;BME280;15787;49.662;10.162;2023-04-05T04:41:05;99722.78;;;-2.61;84.05
28588;BME280;15787;49.662;10.162;2023-04-05T04:43:51;99719.56;;;-2.63;84.33
28588;BME280;15787;49.662;10.162;2023-04-05T04:46:37;99726.22;;;-2.81;84.39
28588;BME280;15787;49.662;10.162;2023-04-05T04:49:20;99725.78;;;-2.45;83.95
28588;BME280;15787;49.662;10.162;2023-04-05T04:52:25;99725.91;;;-2.41;83.28
28588;BME280;15787;49.662;10.162;2023-04-05T04:55:28;99734.66;;;-2.57;82.44
28588;BME280;15787;49.662;10.162;2023-04-05T04:58:16;99736.91;;;-2.50;82.39
28588;BME280;15787;49.662;10.162;2023-04-05T05:01:18;99734.28;;;-2.46;82.02
28588;BME280;15787;49.662;10.162;2023-04-05T05:04:15;99740.25;;;-2.91;83.15
28588;BME280;15787;49.662;10.162;2023-04-05T05:06:51;99733.69;;;-3.07;84.15
28588;BME280;15787;49.662;10.162;2023-04-05T05:09:46;99736.75;;;-3.08;84.92
28588;BME280;15787;49.662;10.162;2023-04-05T05:12:25;99733.47;;;-2.85;85.56
28588;BME280;15787;49.662;10.162;2023-04-05T05:15:23;99740.31;;;-3.42;87.75
28588;BME280;15787;49.662;10.162;2023-04-05T05:17:58;99733.72;;;-3.33;88.31
28588;BME280;15787;49.662;10.162;2023-04-05T05:20:54;99737.09;;;-3.53;89.31
28588;BME280;15787;49.662;10.162;2023-04-05T05:23:28;99732.44;;;-3.27;91.10
28588;BME280;15787;49.662;10.162;2023-04-05T05:26:23;99745.91;;;-3.30;90.83
28588;BME280;15787;49.662;10.162;2023-04-05T05:29:00;99727.63;;;-3.21;91.21
28588;BME280;15787;49.662;10.162;2023-04-05T05:31:55;99733.25;;;-3.35;91.70
28588;BME280;15787;49.662;10.162;2023-04-05T05:34:36;99733.72;;;-3.33;92.15
28588;BME280;15787;49.662;10.162;2023-04-05T05:37:28;99729.38;;;-3.25;92.60
28588;BME280;15787;49.662;10.162;2023-04-05T05:40:29;99724.53;;;-3.11;93.40
28588;BME280;15787;49.662;10.162;2023-04-05T05:43:19;99733.31;;;-2.88;93.60
28588;BME280;15787;49.662;10.162;2023-04-05T05:46:20;99732.97;;;-2.40;92.60
28588;BME280;15787;49.662;10.162;2023-04-05T05:49:08;99734.59;;;-2.10;91.19
28588;BME280;15787;49.662;10.162;2023-04-05T05:51:49;99742.88;;;-2.19;89.80
28588;BME280;15787;49.662;10.162;2023-04-05T05:54:55;99746.00;;;-2.08;88.70
28588;BME280;15787;49.662;10.162;2023-04-05T05:57:36;99744.97;;;-1.95;87.37
28588;BME280;15787;49.662;10.162;2023-04-05T06:00:53;99740.66;;;-2.34;88.39
28588;BME280;15787;49.662;10.162;2023-04-05T06:03:30;99741.72;;;-1.88;87.68
28588;BME280;15787;49.662;10.162;2023-04-05T06:06:25;99741.53;;;-1.83;86.64
28588;BME280;15787;49.662;10.162;2023-04-05T06:09:01;99749.06;;;-1.80;85.76
28588;BME280;15787;49.662;10.162;2023-04-05T06:11:56;99735.69;;;-2.03;86.09
28588;BME280;15787;49.662;10.162;2023-04-05T06:14:30;99741.03;;;-2.06;87.39
28588;BME280;15787;49.662;10.162;2023-04-05T06:17:25;99738.88;;;-2.01;88.87
28588;BME280;15787;49.662;10.162;2023-04-05T06:20:01;99749.06;;;-1.60;88.71
28588;BME280;15787;49.662;10.162;2023-04-05T06:23:14;99746.94;;;-1.75;88.85
28588;BME280;15787;49.662;10.162;2023-04-05T06:25:55;99737.38;;;-1.69;89.24
28588;BME280;15787;49.662;10.162;2023-04-05T06:28:50;99745.22;;;-1.59;90.25
28588;BME280;15787;49.662;10.162;2023-04-05T06:31:30;99742.72;;;-1.52;89.96
28588;BME280;15787;49.662;10.162;2023-04-05T06:34:27;99744.59;;;-1.44;90.71
28588;BME280;15787;49.662;10.162;2023-04-05T06:37:09;99742.25;;;-1.12;90.37
28588;BME280;15787;49.662;10.162;2023-04-05T06:39:57;99739.81;;;-1.14;90.35
28588;BME280;15787;49.662;10.162;2023-04-05T06:42:39;99734.66;;;-0.95;89.98
28588;BME280;15787;49.662;10.162;2023-04-05T06:45:37;99732.84;;;-0.79;89.04
28588;BME280;15787;49.662;10.162;2023-04-05T06:48:23;99730.69;;;-0.61;88.95
28588;BME280;15787;49.662;10.162;2023-04-05T06:51:17;99730.75;;;-0.13;87.46
28588;BME280;15787;49.662;10.162;2023-04-05T06:54:05;99736.69;;;0.14;85.82
28588;BME280;15787;49.662;10.162;2023-04-05T06:57:04;99735.66;;;0.06;85.56
28588;BME280;15787;49.662;10.162;2023-04-05T06:59:43;99739.75;;;0.24;84.75
28588;BME280;15787;49.662;10.162;2023-04-05T07:02:43;99733.34;;;0.32;84.06
28588;BME280;15787;49.662;10.162;2023-04-05T07:05:30;99728.25;;;0.86;82.31
28588;BME280;15787;49.662;10.162;2023-04-05T07:08:24;99732.31;;;0.92;81.56
28588;BME280;15787;49.662;10.162;2023-04-05T07:10:58;99726.72;;;1.16;82.03
28588;BME280;15787;49.662;10.162;2023-04-05T07:13:31;99728.53;;;1.24;80.95
28588;BME280;15787;49.662;10.162;2023-04-05T07:16:05;99725.66;;;1.21;80.31
28588;BME280;15787;49.662;10.162;2023-04-05T07:18:38;99728.97;;;1.58;80.66
28588;BME280;15787;49.662;10.162;2023-04-05T07:21:10;99727.94;;;1.62;79.33
28588;BME280;15787;49.662;10.162;2023-04-05T07:23:43;99728.63;;;1.75;77.64
28588;BME280;15787;49.662;10.162;2023-04-05T07:26:18;99728.16;;;2.04;77.26
28588;BME280;15787;49.662;10.162;2023-04-05T07:28:52;99733.66;;;1.88;76.82
28588;BME280;15787;49.662;10.162;2023-04-05T07:31:25;99724.56;;;2.19;77.62
28588;BME280;15787;49.662;10.162;2023-04-05T07:33:58;99730.00;;;2.70;76.62
28588;BME280;15787;49.662;10.162;2023-04-05T07:36:31;99732.91;;;2.58;76.01
28588;BME280;15787;49.662;10.162;2023-04-05T07:39:07;99737.56;;;2.73;75.34
28588;BME280;15787;49.662;10.162;2023-04-05T07:41:41;99737.06;;;2.86;75.34
28588;BME280;15787;49.662;10.162;2023-04-05T07:44:14;99736.47;;;2.96;74.67
28588;BME280;15787;49.662;10.162;2023-04-05T07:46:47;99736.94;;;3.40;75.13
28588;BME280;15787;49.662;10.162;2023-04-05T07:49:24;99727.88;;;3.43;72.49
28588;BME280;15787;49.662;10.162;2023-04-05T07:51:58;99726.72;;;3.90;70.86
28588;BME280;15787;49.662;10.162;2023-04-05T07:54:31;99726.09;;;4.26;67.98
28588;BME280;15787;49.662;10.162;2023-04-05T07:57:06;99732.34;;;3.97;66.05
28588;BME280;15787;49.662;10.162;2023-04-05T07:59:39;99723.09;;;4.34;66.65
28588;BME280;15787;49.662;10.162;2023-04-05T08:02:12;99720.44;;;4.45;67.39
28588;BME280;15787;49.662;10.162;2023-04-05T08:04:45;99725.28;;;4.52;66.08
28588;BME280;15787;49.662;10.162;2023-04-05T08:07:18;99731.19;;;4.80;67.27
28588;BME280;15787;49.662;10.162;2023-04-05T08:09:51;99726.97;;;5.23;64.80
28588;BME280;15787;49.662;10.162;2023-04-05T08:12:30;99726.69;;;5.31;65.12
28588;BME280;15787;49.662;10.162;2023-04-05T08:15:04;99721.44;;;4.89;63.61
28588;BME280;15787;49.662;10.162;2023-04-05T08:17:37;99727.91;;;5.00;62.28
28588;BME280;15787;49.662;10.162;2023-04-05T08:20:11;99725.56;;;5.02;62.74
28588;BME280;15787;49.662;10.162;2023-04-05T08:22:44;99721.47;;;5.66;61.86
28588;BME280;15787;49.662;10.162;2023-04-05T08:25:17;99720.72;;;6.17;63.22
28588;BME280;15787;49.662;10.162;2023-04-05T08:27:51;99725.47;;;5.32;61.98
28588;BME280;15787;49.662;10.162;2023-04-05T08:30:24;99720.47;;;5.45;61.10
28588;BME280;15787;49.662;10.162;2023-04-05T08:32:57;99717.91;;;5.66;61.09
28588;BME280;15787;49.662;10.162;2023-04-05T08:35:30;99720.75;;;6.20;62.02
28588;BME280;15787;49.662;10.162;2023-04-05T08:38:03;99712.91;;;6.29;59.26
28588;BME280;15787;49.662;10.162;2023-04-05T08:40:39;99718.22;;;6.59;58.36
28588;BME280;15787;49.662;10.162;2023-04-05T08:43:22;99707.66;;;6.86;58.38
28588;BME280;15787;49.662;10.162;2023-04-05T08:45:55;99713.78;;;6.41;58.00
28588;BME280;15787;49.662;10.162;2023-04-05T08:48:31;99710.72;;;6.02;57.19
28588;BME280;15787;49.662;10.162;2023-04-05T08:51:08;99715.56;;;6.87;58.55
28588;BME280;15787;49.662;10.162;2023-04-05T08:53:41;99710.66;;;6.53;57.12
28588;BME280;15787;49.662;10.162;2023-04-05T08:56:15;99706.06;;;6.92;58.32
28588;BME280;15787;49.662;10.162;2023-04-05T08:58:57;99708.00;;;6.77;57.19
28588;BME280;15787;49.662;10.162;2023-04-05T09:01:36;99711.03;;;7.58;56.86
28588;BME280;15787;49.662;10.162;2023-04-05T09:04:13;99701.91;;;7.90;56.25
28588;BME280;15787;49.662;10.162;2023-04-05T09:06:49;99708.09;;;6.98;53.77
28588;BME280;15787;49.662;10.162;2023-04-05T09:09:22;99709.28;;;7.01;54.49
28588;BME280;15787;49.662;10.162;2023-04-05T09:11:56;99715.66;;;7.09;54.05
28588;BME280;15787;49.662;10.162;2023-04-05T09:14:32;99710.63;;;7.81;52.49
28588;BME280;15787;49.662;10.162;2023-04-05T09:17:05;99718.34;;;6.87;52.36
28588;BME280;15787;49.662;10.162;2023-04-05T09:19:38;99717.28;;;7.20;52.88
28588;BME280;15787;49.662;10.162;2023-04-05T09:22:11;99708.66;;;7.64;52.80
28588;BME280;15787;49.662;10.162;2023-04-05T09:24:45;99712.22;;;8.14;53.35
28588;BME280;15787;49.662;10.162;2023-04-05T09:27:21;99711.44;;;8.27;53.37
28588;BME280;15787;49.662;10.162;2023-04-05T09:30:01;99704.66;;;8.53;52.08
28588;BME280;15787;49.662;10.162;2023-04-05T09:32:34;99702.50;;;8.93;51.90
28588;BME280;15787;49.662;10.162;2023-04-05T09:35:16;99697.63;;;9.18;52.19
28588;BME280;15787;49.662;10.162;2023-04-05T09:37:52;99695.06;;;9.48;49.63
28588;BME280;15787;49.662;10.162;2023-04-05T09:40:42;99703.91;;;7.93;50.47
28588;BME280;15787;49.662;10.162;2023-04-05T09:43:37;99687.81;;;8.92;51.94
28588;BME280;15787;49.662;10.162;2023-04-05T09:46:29;99693.41;;;9.58;50.36
28588;BME280;15787;49.662;10.162;2023-04-05T09:49:03;99694.16;;;8.93;48.77
28588;BME280;15787;49.662;10.162;2023-04-05T09:51:37;99687.94;;;9.95;51.17
28588;BME280;15787;49.662;10.162;2023-04-05T09:54:14;99687.13;;;9.43;50.26
28588;BME280;15787;49.662;10.162;2023-04-05T09:56:53;99692.66;;;9.50;51.19
28588;BME280;15787;49.662;10.162;2023-04-05T09:59:28;99684.16;;;10.19;50.11
28588;BME280;15787;49.662;10.162;2023-04-05T10:02:03;99684.34;;;9.94;48.77
28588;BME280;15787;49.662;10.162;2023-04-05T10:04:39;99684.53;;;10.21;50.17
28588;BME280;15787;49.662;10.162;2023-04-05T10:07:14;99674.09;;;10.29;51.27
28588;BME280;15787;49.662;10.162;2023-04-05T10:09:47;99678.19;;;9.04;50.25
28588;BME280;15787;49.662;10.162;2023-04-05T10:12:24;99667.25;;;9.37;50.26
28588;BME280;15787;49.662;10.162;2023-04-05T10:14:58;99667.66;;;9.91;50.71
28588;BME280;15787;49.662;10.162;2023-04-05T10:17:38;99664.06;;;9.90;50.09
28588;BME280;15787;49.662;10.162;2023-04-05T10:20:20;99665.19;;;8.79;50.13
28588;BME280;15787;49.662;10.162;2023-04-05T10:23:00;99661.91;;;10.49;48.93
28588;BME280;15787;49.662;10.162;2023-04-05T10:25:43;99667.94;;;10.03;48.98
28588;BME280;15787;49.662;10.162;2023-04-05T10:28:25;99659.84;;;10.57;47.75
28588;BME280;15787;49.662;10.162;2023-04-05T10:31:10;99673.50;;;9.56;47.76
28588;BME280;15787;49.662;10.162;2023-04-05T10:34:03;99663.25;;;9.93;49.38
28588;BME280;15787;49.662;10.162;2023-04-05T10:36:41;99659.84;;;10.91;49.51
28588;BME280;15787;49.662;10.162;2023-04-05T10:39:21;99655.28;;;11.84;48.20
28588;BME280;15787;49.662;10.162;2023-04-05T10:41:59;99661.81;;;11.47;47.58
28588;BME280;15787;49.662;10.162;2023-04-05T10:44:34;99652.28;;;10.54;46.01
28588;BME280;15787;49.662;10.162;2023-04-05T10:47:13;99648.16;;;10.65;46.50
28588;BME280;15787;49.662;10.162;2023-04-05T10:49:48;99656.22;;;10.60;45.69
28588;BME280;15787;49.662;10.162;2023-04-05T10:52:25;99651.03;;;10.92;47.18
28588;BME280;15787;49.662;10.162;2023-04-05T10:54:59;99656.78;;;10.03;45.61
28588;BME280;15787;49.662;10.162;2023-04-05T10:57:34;99652.88;;;10.72;45.70
28588;BME280;15787;49.662;10.162;2023-04-05T11:00:10;99652.19;;;9.79;46.26
28588;BME280;15787;49.662;10.162;2023-04-05T11:02:44;99641.78;;;10.31;46.06
28588;BME280;15787;49.662;10.162;2023-04-05T11:05:33;99648.56;;;10.30;46.21
28588;BME280;15787;49.662;10.162;2023-04-05T11:08:07;99645.88;;;10.20;44.75
28588;BME280;15787;49.662;10.162;2023-04-05T11:10:41;99639.78;;;11.79;44.35
28588;BME280;15787;49.662;10.162;2023-04-05T11:13:48;99645.25;;;11.60;43.54
28588;BME280;15787;49.662;10.162;2023-04-05T11:16:23;99648.59;;;10.94;46.91
28588;BME280;15787;49.662;10.162;2023-04-05T11:18:56;99632.25;;;10.62;45.37
28588;BME280;15787;49.662;10.162;2023-04-05T11:21:30;99633.69;;;10.74;44.23
28588;BME280;15787;49.662;10.162;2023-04-05T11:24:07;99633.47;;;10.58;45.38
28588;BME280;15787;49.662;10.162;2023-04-05T11:26:55;99637.53;;;10.53;46.17
28588;BME280;15787;49.662;10.162;2023-04-05T11:29:47;99627.53;;;10.86;45.64
28588;BME280;15787;49.662;10.162;2023-04-05T11:32:37;99629.94;;;9.76;43.86
28588;BME280;15787;49.662;10.162;2023-04-05T11:35:12;99625.06;;;10.61;45.76
28588;BME280;15787;49.662;10.162;2023-04-05T11:37:54;99628.06;;;10.44;45.34
28588;BME280;15787;49.662;10.162;2023-04-05T11:40:28;99619.22;;;10.52;44.91
28588;BME280;15787;49.662;10.162;2023-04-05T11:43:03;99623.56;;;9.72;45.57
28588;BME280;15787;49.662;10.162;2023-04-05T11:45:39;99615.84;;;10.98;44.73
28588;BME280;15787;49.662;10.162;2023-04-05T11:48:14;99611.97;;;11.42;44.38
28588;BME280;15787;49.662;10.162;2023-04-05T11:50:49;99602.66;;;12.41;44.87
28588;BME280;15787;49.662;10.162;2023-04-05T11:53:24;99604.84;;;12.11;42.80
28588;BME280;15787;49.662;10.162;2023-04-05T11:56:05;99610.28;;;11.48;42.22
28588;BME280;15787;49.662;10.162;2023-04-05T11:58:38;99603.44;;;12.22;43.19
28588;BME280;15787;49.662;10.162;2023-04-05T12:01:12;99606.03;;;10.19;42.59
28588;BME280;15787;49.662;10.162;2023-04-05T12:03:52;99598.19;;;11.55;43.72
28588;BME280;15787;49.662;10.162;2023-04-05T12:06:25;99596.88;;;11.09;44.15
28588;BME280;15787;49.662;10.162;2023-04-05T12:08:59;99602.00;;;11.14;44.84
28588;BME280;15787;49.662;10.162;2023-04-05T12:11:32;99598.91;;;10.48;44.10
28588;BME280;15787;49.662;10.162;2023-04-05T12:14:05;99596.81;;;10.22;44.91
28588;BME280;15787;49.662;10.162;2023-04-05T12:16:47;99594.00;;;10.22;44.41
28588;BME280;15787;49.662;10.162;2023-04-05T12:19:21;99584.97;;;10.07;44.98
28588;BME280;15787;49.662;10.162;2023-04-05T12:21:54;99592.97;;;9.13;46.02
28588;BME280;15787;49.662;10.162;2023-04-05T12:24:29;99591.72;;;9.69;46.63
28588;BME280;15787;49.662;10.162;2023-04-05T12:27:02;99586.97;;;11.05;45.38
28588;BME280;15787;49.662;10.162;2023-04-05T12:29:34;99581.78;;;10.46;45.39
28588;BME280;15787;49.662;10.162;2023-04-05T12:32:07;99577.00;;;10.77;45.59
28588;BME280;15787;49.662;10.162;2023-04-05T12:34:46;99572.03;;;11.65;44.49
28588;BME280;15787;49.662;10.162;2023-04-05T12:37:19;99570.53;;;12.46;43.77
28588;BME280;15787;49.662;10.162;2023-04-05T12:39:54;99566.75;;;12.17;42.40
28588;BME280;15787;49.662;10.162;2023-04-05T12:42:31;99565.03;;;12.98;41.15
28588;BME280;15787;49.662;10.162;2023-04-05T12:45:09;99574.81;;;11.91;44.23
28588;BME280;15787;49.662;10.162;2023-04-05T12:47:50;99570.00;;;11.92;43.92
28588;BME280;15787;49.662;10.162;2023-04-05T12:50:27;99568.25;;;11.02;46.21
28588;BME280;15787;49.662;10.162;2023-04-05T12:53:04;99559.34;;;13.01;43.21
28588;BME280;15787;49.662;10.162;2023-04-05T12:55:44;99558.97;;;13.35;42.68
28588;BME280;15787;49.662;10.162;2023-04-05T12:58:20;99549.84;;;13.63;42.26
28588;BME280;15787;49.662;10.162;2023-04-05T13:00:54;99547.31;;;13.20;39.16
28588;BME280;15787;49.662;10.162;2023-04-05T13:03:26;99543.56;;;12.91;42.02
28588;BME280;15787;49.662;10.162;2023-04-05T13:06:00;99542.28;;;12.40;40.85
28588;BME280;15787;49.662;10.162;2023-04-05T13:08:33;99543.78;;;12.45;40.32
28588;BME280;15787;49.662;10.162;2023-04-05T13:11:07;99535.09;;;13.75;40.18
28588;BME280;15787;49.662;10.162;2023-04-05T13:13:40;99540.25;;;12.60;41.66
28588;BME280;15787;49.662;10.162;2023-04-05T13:16:13;99522.34;;;14.32;37.20
28588;BME280;15787;49.662;10.162;2023-04-05T13:18:46;99524.78;;;13.24;41.26
28588;BME280;15787;49.662;10.162;2023-04-05T13:21:19;99527.06;;;13.45;40.67
28588;BME280;15787;49.662;10.162;2023-04-05T13:23:52;99525.84;;;13.91;39.74
28588;BME280;15787;49.662;10.162;2023-04-05T13:26:26;99528.03;;;12.87;39.94
28588;BME280;15787;49.662;10.162;2023-04-05T13:28:59;99519.44;;;13.13;40.14
28588;BME280;15787;49.662;10.162;2023-04-05T13:31:32;99517.88;;;12.93;40.38
28588;BME280;15787;49.662;10.162;2023-04-05T13:34:05;99515.19;;;12.14;41.03
28588;BME280;15787;49.662;10.162;2023-04-05T13:36:39;99513.69;;;12.10;40.33
28588;BME280;15787;49.662;10.162;2023-04-05T13:39:12;99515.38;;;12.98;41.82
28588;BME280;15787;49.662;10.162;2023-04-05T13:41:46;99503.50;;;13.10;41.46
28588;BME280;15787;49.662;10.162;2023-04-05T13:44:19;99502.97;;;12.80;42.11
28588;BME280;15787;49.662;10.162;2023-04-05T13:46:52;99499.84;;;12.22;41.54
28588;BME280;15787;49.662;10.162;2023-04-05T13:49:24;99491.13;;;13.08;41.18
28588;BME280;15787;49.662;10.162;2023-04-05T13:51:57;99491.06;;;12.76;41.47